Terminal Aerodrome Forecast
Issued by NWS Detroit/Pontiac, MI

Home | Current Version | Previous Version | Text Only | Print | Product List | Glossary On
Versions: 1 2 3 4 5 6 7 8 9 10 11 12 13 14 15 16 17 18 19 20 21 22 23 24 25 26
000
FTUS43 KDTX 292320
TAFDTW
TAF
KDTW 292320Z 3000/3106 22014G22KT P6SM SCT025 OVC045
      TEMPO 3002/3004 -SHRASN BKN035
     FM300400 24012KT P6SM BKN025 OVC035
     FM301400 27012KT P6SM BKN035
     FM301800 28016G26KT P6SM SCT040 SCT200
     FM310200 VRB05KT P6SM BKN150=

USA.gov is the U.S. government's official web portal to all federal, state and local government web resources and services.